Lake Station, Michigan
Current Conditions -  °F | °C
As of 5:38 PM on Friday 31 Oct 2014 (Local Time) from KMOP Reporting Station
Overcast Overcast  
Wind Chill: 25°   Ceiling: 3000
Heat Index: 35°   Visibility: 10mi
Dew Point: 26°   Wind: 14mph
Humidity: 72%   Direction: 350°N
Pressure: 30.16"   Gusts: 22mph
Location:  43.8696°N, 85.0147°W
Report Text: KMOP 312138Z AUTO 35012G19KT 10SM OVC030 02/M03 A3016 RMK AO2 T00151031
Loading
Personal Weather Stations






























Interactive Weather Map
Tropical Storm Tracking
New forecast layout! Learn more

10-Day Weather Forecast

Advertisements
Track Severe Weather on mobile